createdAt,value
2022-12-11T00:01:58.283Z,78.92
2022-12-11T00:07:20.522Z,79.00
2022-12-11T00:12:43.358Z,79.07
2022-12-11T00:18:05.571Z,78.92
2022-12-11T00:23:27.947Z,78.44
2022-12-11T00:28:51.053Z,77.81
2022-12-11T00:34:14.607Z,77.54
2022-12-11T00:39:36.791Z,77.50
2022-12-11T00:44:59.021Z,77.55
2022-12-11T00:50:21.467Z,77.71
2022-12-11T00:55:44.615Z,77.67
2022-12-11T01:01:13.909Z,77.68
2022-12-11T01:06:41.324Z,77.52
2022-12-11T01:12:03.652Z,77.49
2022-12-11T01:17:26.425Z,77.54
2022-12-11T01:22:48.984Z,77.69
2022-12-11T01:28:12.814Z,77.65
2022-12-11T01:33:35.122Z,77.58
2022-12-11T01:38:58.832Z,77.77
2022-12-11T01:44:32.011Z,77.87
2022-12-11T01:49:55.041Z,77.84
2022-12-11T01:55:18.519Z,77.58
2022-12-11T02:00:41.069Z,77.31
2022-12-11T02:06:06.837Z,77.14
2022-12-11T02:11:39.720Z,77.09
2022-12-11T02:17:22.578Z,78.39
2022-12-11T02:23:19.971Z,77.68
2022-12-11T02:29:06.073Z,77.88
2022-12-11T02:34:39.320Z,78.17
2022-12-11T02:40:04.077Z,78.25
2022-12-11T02:45:29.449Z,78.50
2022-12-11T02:50:54.599Z,78.79
2022-12-11T02:56:25.028Z,79.10
2022-12-11T03:01:48.047Z,79.47
2022-12-11T03:07:15.173Z,79.73
2022-12-11T03:12:53.031Z,80.16
2022-12-11T03:18:36.162Z,80.50
2022-12-11T03:24:06.113Z,80.93
2022-12-11T03:29:36.492Z,81.31
2022-12-11T03:35:22.436Z,82.19
2022-12-11T03:40:48.515Z,82.08
2022-12-11T03:46:13.570Z,82.53
2022-12-11T03:51:37.334Z,82.65
2022-12-11T03:57:03.584Z,82.75
2022-12-11T04:02:25.949Z,82.96
2022-12-11T04:07:48.801Z,83.33
2022-12-11T04:13:11.094Z,83.86
2022-12-11T04:18:50.808Z,84.28
2022-12-11T04:24:15.692Z,84.74
2022-12-11T04:29:37.976Z,85.15
2022-12-11T04:35:00.341Z,85.48
2022-12-11T04:40:28.852Z,85.46
2022-12-11T04:45:51.450Z,84.78
2022-12-11T04:51:13.924Z,83.68
2022-12-11T04:56:36.187Z,82.75
2022-12-11T05:01:58.426Z,81.73
2022-12-11T05:07:22.501Z,81.17
2022-12-11T05:12:45.866Z,80.89
2022-12-11T05:18:08.205Z,80.74
2022-12-11T05:23:31.175Z,80.77
2022-12-11T05:28:56.530Z,80.78
2022-12-11T05:34:18.818Z,80.89
2022-12-11T05:39:41.161Z,81.07
2022-12-11T05:45:03.873Z,81.16
2022-12-11T05:50:26.345Z,81.41
2022-12-11T05:55:49.052Z,81.60
2022-12-11T06:01:16.380Z,81.84
2022-12-11T06:06:40.745Z,81.85
2022-12-11T06:12:02.983Z,81.94
2022-12-11T06:17:25.385Z,81.93
2022-12-11T06:22:47.679Z,81.98
2022-12-11T06:28:12.531Z,81.85
2022-12-11T06:33:34.786Z,81.76
2022-12-11T06:38:59.696Z,81.94
2022-12-11T06:44:22.139Z,82.22
2022-12-11T06:49:44.585Z,82.36
2022-12-11T06:55:07.673Z,82.30
2022-12-11T07:00:30.612Z,81.94
2022-12-11T07:05:53.554Z,81.64
2022-12-11T07:11:22.017Z,81.55
2022-12-11T07:16:45.153Z,81.71
2022-12-11T07:22:07.417Z,81.85
2022-12-11T07:27:29.657Z,82.04
2022-12-11T07:32:52.415Z,82.29
2022-12-11T07:38:15.173Z,82.57
2022-12-11T07:43:37.951Z,82.78
2022-12-11T07:49:02.155Z,82.94
2022-12-11T07:54:28.114Z,83.24
2022-12-11T07:59:50.836Z,83.45
2022-12-11T08:05:14.131Z,83.53
2022-12-11T08:10:36.726Z,83.64
2022-12-11T08:15:58.960Z,83.78
2022-12-11T08:21:30.877Z,84.03
2022-12-11T08:26:53.813Z,84.11
2022-12-11T08:32:17.249Z,84.19
2022-12-11T08:37:41.520Z,83.99
2022-12-11T08:43:04.408Z,83.99
2022-12-11T08:48:28.374Z,83.77
2022-12-11T08:53:52.634Z,83.71
2022-12-11T08:59:16.572Z,83.74
2022-12-11T09:04:44.762Z,83.95
2022-12-11T09:10:08.079Z,83.87
2022-12-11T09:15:31.196Z,83.11
2022-12-11T09:20:55.667Z,82.28
2022-12-11T09:26:21.120Z,81.33
2022-12-11T09:31:50.935Z,80.56
2022-12-11T09:37:16.070Z,80.07
2022-12-11T09:42:59.286Z,79.62
2022-12-11T09:48:24.997Z,79.04
2022-12-11T09:53:53.474Z,78.49
2022-12-11T09:59:48.675Z,78.00
2022-12-11T10:05:40.678Z,77.64
2022-12-11T10:11:36.724Z,77.39
2022-12-11T10:17:27.529Z,77.04
2022-12-11T10:22:53.661Z,77.18
2022-12-11T10:28:28.001Z,77.44
2022-12-11T10:34:19.702Z,77.77
2022-12-11T10:39:44.135Z,77.93
2022-12-11T10:45:21.087Z,78.21
2022-12-11T10:50:45.342Z,78.09
2022-12-11T10:56:08.996Z,77.87
2022-12-11T11:01:39.320Z,77.54
2022-12-11T11:07:13.412Z,77.48
2022-12-11T11:12:43.827Z,77.34
2022-12-11T11:18:11.158Z,77.59
2022-12-11T11:23:41.156Z,77.79
2022-12-11T11:29:06.020Z,78.08
2022-12-11T11:34:31.496Z,78.30
2022-12-11T11:39:58.490Z,78.26
2022-12-11T11:45:26.754Z,78.19
2022-12-11T11:50:52.362Z,77.96
2022-12-11T11:56:43.513Z,78.07
2022-12-11T12:02:08.446Z,78.05
2022-12-11T12:08:13.526Z,77.98
2022-12-11T12:13:50.866Z,77.90
2022-12-11T12:19:28.733Z,77.96
2022-12-11T12:25:23.563Z,78.01
2022-12-11T12:30:51.919Z,78.28
2022-12-11T12:36:32.047Z,78.05
2022-12-11T12:42:20.505Z,78.10
2022-12-11T12:47:53.244Z,77.97
2022-12-11T12:53:14.152Z,78.06
2022-12-11T12:58:49.856Z,78.21
2022-12-11T13:04:54.863Z,78.34
2022-12-11T13:10:30.241Z,78.52
2022-12-11T13:16:01.665Z,78.56
2022-12-11T13:21:45.913Z,78.63
2022-12-11T13:27:17.922Z,78.66
2022-12-11T13:32:46.552Z,78.85
2022-12-11T13:38:13.111Z,79.08
2022-12-11T13:43:39.978Z,79.58
2022-12-11T13:49:14.020Z,80.15
2022-12-11T13:54:40.477Z,80.87
2022-12-11T14:00:06.555Z,81.18
2022-12-11T14:05:32.673Z,81.45
2022-12-11T14:11:02.466Z,81.73
2022-12-11T14:16:27.874Z,82.02
2022-12-11T14:21:50.148Z,82.39
2022-12-11T14:27:16.487Z,82.84
2022-12-11T14:32:46.001Z,83.32
2022-12-11T14:38:13.032Z,83.72
2022-12-11T14:43:46.172Z,84.15
2022-12-11T14:49:20.931Z,84.57
2022-12-11T14:55:10.868Z,85.09
2022-12-11T15:00:44.539Z,85.60
2022-12-11T15:06:28.206Z,86.20
2022-12-11T15:11:53.536Z,86.83
2022-12-11T15:17:17.245Z,87.33
2022-12-11T15:22:42.731Z,87.77
2022-12-11T15:28:08.426Z,88.19
2022-12-11T15:33:34.956Z,88.65
2022-12-11T15:39:00.748Z,88.96
2022-12-11T15:44:26.708Z,89.18
2022-12-11T15:49:49.371Z,89.46
2022-12-11T15:55:12.138Z,89.79
2022-12-11T16:00:37.182Z,89.93
2022-12-11T16:06:02.600Z,90.07
2022-12-11T16:11:27.679Z,90.09
2022-12-11T16:16:52.682Z,90.17
2022-12-11T16:22:17.300Z,90.10
2022-12-11T16:27:40.285Z,90.07
2022-12-11T16:33:08.557Z,90.04
2022-12-11T16:38:28.138Z,89.98
2022-12-11T16:43:52.156Z,89.91
2022-12-11T16:49:14.847Z,89.97
2022-12-11T16:54:37.596Z,90.07
2022-12-11T17:00:00.375Z,90.29
2022-12-11T17:05:22.941Z,90.40
2022-12-11T17:10:46.412Z,90.59
2022-12-11T17:16:16.854Z,90.77
2022-12-11T17:21:41.268Z,90.98
2022-12-11T17:27:03.504Z,91.33
2022-12-11T17:32:25.680Z,91.75
2022-12-11T17:37:47.858Z,92.12
2022-12-11T17:43:10.265Z,92.45
2022-12-11T17:48:35.041Z,93.11
2022-12-11T17:54:00.270Z,93.60
2022-12-11T17:59:25.162Z,94.25
2022-12-11T18:04:47.815Z,94.64
2022-12-11T18:10:10.324Z,94.95
2022-12-11T18:15:34.114Z,95.26
2022-12-11T18:20:56.708Z,95.59
2022-12-11T18:26:19.636Z,96.04
2022-12-11T18:31:43.403Z,96.41
2022-12-11T18:37:05.816Z,96.84
2022-12-11T18:42:33.076Z,97.16
2022-12-11T18:47:52.429Z,97.75
2022-12-11T18:53:14.606Z,98.02
2022-12-11T18:58:37.780Z,98.30
2022-12-11T19:04:04.438Z,98.77
2022-12-11T19:09:26.309Z,98.87
2022-12-11T19:14:49.160Z,98.95
2022-12-11T19:20:40.237Z,99.38
2022-12-11T19:25:37.150Z,99.32
2022-12-11T19:31:04.320Z,98.61
2022-12-11T19:36:32.062Z,97.90
2022-12-11T19:41:54.320Z,96.99
2022-12-11T19:47:17.685Z,95.89
2022-12-11T19:52:45.796Z,94.85
2022-12-11T19:58:04.533Z,93.54
2022-12-11T20:03:26.853Z,92.40
2022-12-11T20:08:49.070Z,91.67
2022-12-11T20:14:12.134Z,91.16
2022-12-11T20:19:34.895Z,90.48
2022-12-11T20:24:57.101Z,89.94
2022-12-11T20:30:19.752Z,89.54
2022-12-11T20:35:42.737Z,89.46
2022-12-11T20:41:05.279Z,89.38
2022-12-11T20:46:30.870Z,89.40
2022-12-11T20:51:53.124Z,89.48
2022-12-11T20:57:16.684Z,89.74
2022-12-11T21:02:39.184Z,90.25
2022-12-11T21:08:01.533Z,90.55
2022-12-11T21:13:25.209Z,90.82
2022-12-11T21:18:48.016Z,90.63
2022-12-11T21:24:10.348Z,90.56
2022-12-11T21:29:34.839Z,90.62
2022-12-11T21:34:59.224Z,90.23
2022-12-11T21:40:22.698Z,90.02
2022-12-11T21:46:02.676Z,89.79
2022-12-11T21:51:14.254Z,89.57
2022-12-11T21:56:39.979Z,89.24
2022-12-11T22:02:03.835Z,89.04
2022-12-11T22:07:26.780Z,88.85
2022-12-11T22:12:49.650Z,88.81
2022-12-11T22:18:11.846Z,88.67
2022-12-11T22:23:34.106Z,88.52
2022-12-11T22:28:57.132Z,87.85
2022-12-11T22:34:19.543Z,87.29
2022-12-11T22:39:42.029Z,86.82
2022-12-11T22:45:04.226Z,86.38
2022-12-11T22:50:27.442Z,86.09
2022-12-11T22:55:53.040Z,86.01
2022-12-11T23:01:18.029Z,85.83
2022-12-11T23:06:41.976Z,85.98
2022-12-11T23:12:04.815Z,86.22
2022-12-11T23:17:27.016Z,86.45
2022-12-11T23:22:49.251Z,86.78
2022-12-11T23:28:11.515Z,86.77
2022-12-11T23:33:33.797Z,86.83
2022-12-11T23:38:56.103Z,86.85
2022-12-11T23:44:18.442Z,86.78
2022-12-11T23:49:40.736Z,86.68
2022-12-11T23:55:03.097Z,86.79
